Anzoras — EAZC — position and weather

sailwx.info

Track history (hours):
 
Tides and Currents Weather Stations Pressure Air Temp Water Temp Dewpoint Dewpoint Depression Visibility Wind Speed Wind Dir Waves Ship Positions

Anzoras

Last reported at 2016-Dec-07 12:33 UTC. Time now 2016-Dec-08 09:59 UTC.
Position N 48°55' W 005°41'.

Length 100 m; draft 4.3 m.

Type: Cargo ship. MMSI: 224376000.

Date/timePositionNaut miles runAvg speedWind from/ knotsBaromVisibWave heightAir tempDewpointWater temp
2016-Dec-07 12:33N 48°55' W 005°41'1210.4
2016-Dec-07 11:22N 49°01' W 005°25'910.1
2016-Dec-07 10:30N 49°06' W 005°13'6210.4
2016-Dec-07 04:33N 49°45' W 004°00'1311.5
2016-Dec-07 03:23N 49°53' W 003°44'911.3
2016-Dec-07 02:33N 49°59' W 003°33'1110.8
2016-Dec-07 01:33N 50°06' W 003°19'1010.5
2016-Dec-07 00:33N 50°13' W 003°07'1010.4
2016-Dec-06 23:33N 50°20' W 002°55'5911.4
2016-Dec-06 18:22N 50°30' W 001°23'3913.0
2016-Dec-06 15:20N 50°30' W 000°21'911.0
2016-Dec-06 14:33N 50°30' W 000°08'5710.7
2016-Dec-06 09:11N 50°53' E 001°16'812.4
2016-Dec-06 08:33N 50°59' E 001°24'1211.5
2016-Dec-06 07:33N 51°07' E 001°36'1110.6
2016-Dec-06 06:34N 51°15' E 001°47'1010.1
2016-Dec-06 05:33N 51°25' E 001°52'1010.1
2016-Dec-06 04:32N 51°35' E 001°48'1111.2
2016-Dec-06 03:33N 51°46' E 001°43'9 9.1
2016-Dec-06 02:34N 51°53' E 001°34'9 8.8
2016-Dec-06 01:34N 51°55' E 001°20'7 6.6
2016-Dec-06 00:34N 52°00' E 001°13'3 3.0
2016-Dec-05 23:32N 52°02' E 001°10'0 0.5
2016-Dec-05 22:32N 52°02' E 001°10'0 0.0
2016-Dec-05 21:32N 52°02' E 001°10'0 0.0
2016-Dec-05 20:32N 52°02' E 001°10'0 0.0
2016-Dec-05 19:32N 52°02' E 001°10'0 0.0
2016-Dec-05 18:32N 52°02' E 001°10'0 0.0
2016-Dec-05 17:32N 52°02' E 001°10'0 0.0
2016-Dec-05 16:32N 52°02' E 001°10'0 0.0
2016-Dec-05 15:32N 52°02' E 001°10'0 0.0
2016-Dec-05 14:32N 52°02' E 001°10'0 0.0
2016-Dec-05 13:32N 52°02' E 001°10'0 0.0
2016-Dec-05 12:32N 52°02' E 001°10'0 0.0
2016-Dec-05 11:32N 52°02' E 001°10'0 0.0
2016-Dec-05 10:32N 52°02' E 001°10'0 0.0
2016-Dec-05 09:32N 52°02' E 001°10'0 0.0
2016-Dec-05 08:32N 52°02' E 001°10'0 0.0
2016-Dec-05 07:32N 52°02' E 001°10'0 0.0
2016-Dec-05 06:32N 52°02' E 001°10'0 0.0
2016-Dec-05 05:32N 52°02' E 001°10'0 0.0
2016-Dec-05 04:32N 52°02' E 001°10'0 0.0
2016-Dec-05 03:32N 52°02' E 001°10'0 0.0
2016-Dec-05 02:32N 52°02' E 001°10'0 0.0
2016-Dec-05 01:32N 52°02' E 001°10'0 0.0
2016-Dec-05 00:32N 52°02' E 001°10'0 0.0
2016-Dec-04 23:32N 52°02' E 001°10'0 0.0
2016-Dec-04 22:32N 52°02' E 001°10'0 0.0
2016-Dec-04 21:32N 52°02' E 001°10'0 0.0
2016-Dec-04 20:32N 52°02' E 001°10'0 0.0
2016-Dec-04 19:32N 52°02' E 001°10'0 0.0
2016-Dec-04 18:32N 52°02' E 001°10'0 0.0
2016-Dec-04 17:32N 52°02' E 001°10'0 0.0
2016-Dec-04 16:32N 52°02' E 001°10'0 0.0
2016-Dec-04 15:32N 52°02' E 001°10'0 0.0
2016-Dec-04 14:32N 52°02' E 001°10'0 0.0
2016-Dec-04 13:32N 52°02' E 001°10'0 0.0
2016-Dec-04 12:32N 52°02' E 001°10'0 0.0
2016-Dec-04 11:32N 52°02' E 001°10'0 0.0
2016-Dec-04 10:32N 52°02' E 001°10'0 0.0
2016-Dec-04 09:32N 52°02' E 001°10'0 0.0
2016-Dec-04 08:32N 52°02' E 001°10'0 0.0
2016-Dec-04 07:32N 52°02' E 001°10'0 0.0
2016-Dec-04 06:32N 52°02' E 001°10'0 0.0
2016-Dec-04 05:32N 52°02' E 001°10'0 0.0
2016-Dec-04 04:32N 52°02' E 001°10'0 0.0
2016-Dec-04 03:32N 52°02' E 001°10'0 0.0
2016-Dec-04 02:32N 52°02' E 001°10'0 0.0
2016-Dec-04 01:32N 52°02' E 001°10'0 0.0
2016-Dec-04 00:32N 52°02' E 001°10'0 0.0
2016-Dec-03 23:32N 52°02' E 001°10'0 0.0
2016-Dec-03 22:32N 52°02' E 001°10'3 3.3
2016-Dec-03 21:32N 51°60' E 001°14'7 7.3
2016-Dec-03 20:32N 51°56' E 001°24'1 1.1
2016-Dec-03 19:32N 51°57' E 001°24'0 0.1
2016-Dec-03 18:29N 51°57' E 001°25'0 0.1
2016-Dec-03 17:32N 51°57' E 001°25'0 0.0
2016-Dec-03 16:32N 51°57' E 001°25'0 0.0
2016-Dec-03 15:32N 51°57' E 001°25'0 0.0
2016-Dec-03 14:32N 51°57' E 001°25'0 0.1
2016-Dec-03 13:32N 51°57' E 001°24'0 0.1
2016-Dec-03 12:32N 51°57' E 001°24'0 0.0
2016-Dec-03 11:32N 51°57' E 001°24'0 0.0
2016-Dec-03 10:32N 51°57' E 001°24'0 0.0
2016-Dec-03 09:32N 51°57' E 001°24'0 0.0
2016-Dec-03 08:32N 51°57' E 001°25'0 0.0
2016-Dec-03 07:32N 51°57' E 001°24'0 0.1
2016-Dec-03 06:32N 51°57' E 001°25'0 0.0
2016-Dec-03 05:32N 51°57' E 001°25'0 0.0
2016-Dec-03 04:32N 51°57' E 001°25'0 0.0
2016-Dec-03 03:32N 51°57' E 001°25'0 0.0
2016-Dec-03 02:32N 51°57' E 001°25'0 0.1
2016-Dec-03 01:32N 51°57' E 001°24'0 0.0
2016-Dec-03 00:32N 51°57' E 001°24'0 0.0
2016-Dec-02 23:32N 51°57' E 001°24'0 0.0
2016-Dec-02 22:32N 51°57' E 001°25'0 0.0
2016-Dec-02 21:32N 51°57' E 001°24'0 0.0
2016-Dec-02 20:32N 51°57' E 001°24'0 0.0
2016-Dec-02 19:32N 51°57' E 001°25'0 0.1
2016-Dec-02 18:32N 51°57' E 001°25'0 0.1
2016-Dec-02 17:32N 51°57' E 001°25'0 0.0
2016-Dec-02 16:32N 51°57' E 001°25'0 0.0
2016-Dec-02 15:26N 51°57' E 001°25'0 0.0
2016-Dec-02 14:32N 51°57' E 001°25'0 0.0
2016-Dec-02 13:32N 51°57' E 001°25'0 0.1
2016-Dec-02 12:32N 51°57' E 001°25'0 0.0
2016-Dec-02 11:32N 51°57' E 001°24'0 0.0
2016-Dec-02 10:32N 51°57' E 001°25'0 0.0
2016-Dec-02 09:32N 51°57' E 001°25'0 0.0
2016-Dec-02 08:32N 51°57' E 001°25'0 0.0
2016-Dec-02 07:32N 51°57' E 001°25'0 0.1
2016-Dec-02 06:32N 51°57' E 001°25'0 0.1
2016-Dec-02 05:32N 51°57' E 001°25'0 0.0
2016-Dec-02 04:32N 51°57' E 001°25'0 0.0
2016-Dec-02 03:32N 51°57' E 001°25'0 0.0
2016-Dec-02 02:32N 51°57' E 001°25'0 0.0
2016-Dec-02 01:32N 51°57' E 001°25'0 0.1
2016-Dec-02 00:32N 51°57' E 001°25'0 0.1
2016-Dec-01 23:29N 51°57' E 001°25'0 0.0
2016-Dec-01 22:32N 51°57' E 001°25'0 0.0
2016-Dec-01 21:32N 51°57' E 001°25'0 0.0
2016-Dec-01 20:32N 51°57' E 001°25'0 0.0
2016-Dec-01 19:32N 51°57' E 001°25'0 0.1
2016-Dec-01 18:32N 51°57' E 001°25'0 0.1
2016-Dec-01 17:32N 51°57' E 001°25'0 0.0
2016-Dec-01 16:34N 51°57' E 001°25'0 0.0
2016-Dec-01 15:33N 51°57' E 001°25'0 0.0
2016-Dec-01 14:33N 51°57' E 001°25'0 0.0
2016-Dec-01 13:34N 51°57' E 001°25'0 0.0
2016-Dec-01 12:33N 51°57' E 001°25'0 0.1
2016-Dec-01 11:33N 51°57' E 001°25'0 0.0
2016-Dec-01 10:33N 51°57' E 001°25'5 4.8
2016-Dec-01 09:33N 51°56' E 001°32'9 9.5
2016-Dec-01 08:33N 51°51' E 001°45'9 8.6
2016-Dec-01 07:33N 51°42' E 001°48'1110.8
2016-Dec-01 06:33N 51°32' E 001°52'1110.8
2016-Dec-01 05:33N 51°24' E 002°04'1211.7
2016-Dec-01 04:33N 51°15' E 001°51'1212.5
2016-Dec-01 03:34N 51°05' E 001°40'6212.0
2016-Nov-30 22:24N 50°26' E 000°24'1213.7
2016-Nov-30 21:33N 50°22' E 000°07'3013.9
2016-Nov-30 19:23N 50°19' W 000°40'1313.0
2016-Nov-30 18:23N 50°18' W 001°00'1011.9
2016-Nov-30 17:33N 50°18' W 001°16'50 9.4
2016-Nov-30 12:16N 50°19' W 002°34'811.0
2016-Nov-30 11:33N 50°19' W 002°46'1111.3
2016-Nov-30 10:33N 50°16' W 003°03'1111.3
2016-Nov-30 09:33N 50°12' W 003°20'1212.2
2016-Nov-30 08:33N 50°08' W 003°38'1212.3
2016-Nov-30 07:33N 50°05' W 003°57'1312.3
2016-Nov-30 06:27N 50°01' W 004°17'1212.4
2016-Nov-30 05:31N 49°58' W 004°34'1512.2
2016-Nov-30 04:17N 49°54' W 004°57'1411.8
2016-Nov-30 03:04N 49°53' W 005°19'611.3
2016-Nov-30 02:31N 49°53' W 005°29'2110.2
2016-Nov-30 00:27N 49°58' W 006°01'1611.6
2016-Nov-29 23:06N 50°14' W 005°60'2312.5
2016-Nov-29 21:14N 50°37' W 006°00'4711.9
2016-Nov-29 17:16N 51°24' W 005°59'1210.6
2016-Nov-29 16:10N 51°36' W 005°59'140 9.6
2016-Nov-29 01:32N 53°34' W 003°56'1211.8
2016-Nov-29 00:33N 53°33' W 003°36'1111.4
2016-Nov-28 23:33N 53°32' W 003°17'9 9.4
2016-Nov-28 22:33N 53°28' W 003°03'9 8.5
2016-Nov-28 21:28N 53°19' W 002°57'2 2.7
2016-Nov-28 20:33N 53°18' W 002°54'5 5.1
2016-Nov-28 19:33N 53°18' W 002°45'2 0.2
2016-Nov-28 08:22N 53°20' W 002°45'  
Track history (hours):
 
Tides and Currents Weather Stations Pressure Air Temp Water Temp Dewpoint Dewpoint Depression Visibility Wind Speed Wind Dir Waves Ship Positions

Anzoras

Last reported at 2016-Dec-07 12:33 UTC. Time now 2016-Dec-08 09:59 UTC.
Position N 48°55' W 005°41'.

Length 100 m; draft 4.3 m.

Type: Cargo ship. MMSI: 224376000.

Date/timePositionNaut miles runAvg speedWind from/ knotsBaromVisibWave heightAir tempDewpointWater temp
2016-Dec-07 12:33N 48°55' W 005°41'1210.4
2016-Dec-07 11:22N 49°01' W 005°25'910.1
2016-Dec-07 10:30N 49°06' W 005°13'6210.4
2016-Dec-07 04:33N 49°45' W 004°00'1311.5
2016-Dec-07 03:23N 49°53' W 003°44'911.3
2016-Dec-07 02:33N 49°59' W 003°33'1110.8
2016-Dec-07 01:33N 50°06' W 003°19'1010.5
2016-Dec-07 00:33N 50°13' W 003°07'1010.4
2016-Dec-06 23:33N 50°20' W 002°55'5911.4
2016-Dec-06 18:22N 50°30' W 001°23'3913.0
2016-Dec-06 15:20N 50°30' W 000°21'911.0
2016-Dec-06 14:33N 50°30' W 000°08'5710.7
2016-Dec-06 09:11N 50°53' E 001°16'812.4
2016-Dec-06 08:33N 50°59' E 001°24'1211.5
2016-Dec-06 07:33N 51°07' E 001°36'1110.6
2016-Dec-06 06:34N 51°15' E 001°47'1010.1
2016-Dec-06 05:33N 51°25' E 001°52'1010.1
2016-Dec-06 04:32N 51°35' E 001°48'1111.2
2016-Dec-06 03:33N 51°46' E 001°43'9 9.1
2016-Dec-06 02:34N 51°53' E 001°34'9 8.8
2016-Dec-06 01:34N 51°55' E 001°20'7 6.6
2016-Dec-06 00:34N 52°00' E 001°13'3 3.0
2016-Dec-05 23:32N 52°02' E 001°10'0 0.5
2016-Dec-05 22:32N 52°02' E 001°10'0 0.0
2016-Dec-05 21:32N 52°02' E 001°10'0 0.0
2016-Dec-05 20:32N 52°02' E 001°10'0 0.0
2016-Dec-05 19:32N 52°02' E 001°10'0 0.0
2016-Dec-05 18:32N 52°02' E 001°10'0 0.0
2016-Dec-05 17:32N 52°02' E 001°10'0 0.0
2016-Dec-05 16:32N 52°02' E 001°10'0 0.0
2016-Dec-05 15:32N 52°02' E 001°10'0 0.0
2016-Dec-05 14:32N 52°02' E 001°10'0 0.0
2016-Dec-05 13:32N 52°02' E 001°10'0 0.0
2016-Dec-05 12:32N 52°02' E 001°10'0 0.0
2016-Dec-05 11:32N 52°02' E 001°10'0 0.0
2016-Dec-05 10:32N 52°02' E 001°10'0 0.0
2016-Dec-05 09:32N 52°02' E 001°10'0 0.0
2016-Dec-05 08:32N 52°02' E 001°10'0 0.0
2016-Dec-05 07:32N 52°02' E 001°10'0 0.0
2016-Dec-05 06:32N 52°02' E 001°10'0 0.0
2016-Dec-05 05:32N 52°02' E 001°10'0 0.0
2016-Dec-05 04:32N 52°02' E 001°10'0 0.0
2016-Dec-05 03:32N 52°02' E 001°10'0 0.0
2016-Dec-05 02:32N 52°02' E 001°10'0 0.0
2016-Dec-05 01:32N 52°02' E 001°10'0 0.0
2016-Dec-05 00:32N 52°02' E 001°10'0 0.0
2016-Dec-04 23:32N 52°02' E 001°10'0 0.0
2016-Dec-04 22:32N 52°02' E 001°10'0 0.0
2016-Dec-04 21:32N 52°02' E 001°10'0 0.0
2016-Dec-04 20:32N 52°02' E 001°10'0 0.0
2016-Dec-04 19:32N 52°02' E 001°10'0 0.0
2016-Dec-04 18:32N 52°02' E 001°10'0 0.0
2016-Dec-04 17:32N 52°02' E 001°10'0 0.0
2016-Dec-04 16:32N 52°02' E 001°10'0 0.0
2016-Dec-04 15:32N 52°02' E 001°10'0 0.0
2016-Dec-04 14:32N 52°02' E 001°10'0 0.0
2016-Dec-04 13:32N 52°02' E 001°10'0 0.0
2016-Dec-04 12:32N 52°02' E 001°10'0 0.0
2016-Dec-04 11:32N 52°02' E 001°10'0 0.0
2016-Dec-04 10:32N 52°02' E 001°10'0 0.0
2016-Dec-04 09:32N 52°02' E 001°10'0 0.0
2016-Dec-04 08:32N 52°02' E 001°10'0 0.0
2016-Dec-04 07:32N 52°02' E 001°10'0 0.0
2016-Dec-04 06:32N 52°02' E 001°10'0 0.0
2016-Dec-04 05:32N 52°02' E 001°10'0 0.0
2016-Dec-04 04:32N 52°02' E 001°10'0 0.0
2016-Dec-04 03:32N 52°02' E 001°10'0 0.0
2016-Dec-04 02:32N 52°02' E 001°10'0 0.0
2016-Dec-04 01:32N 52°02' E 001°10'0 0.0
2016-Dec-04 00:32N 52°02' E 001°10'0 0.0
2016-Dec-03 23:32N 52°02' E 001°10'0 0.0
2016-Dec-03 22:32N 52°02' E 001°10'3 3.3
2016-Dec-03 21:32N 51°60' E 001°14'7 7.3
2016-Dec-03 20:32N 51°56' E 001°24'1 1.1
2016-Dec-03 19:32N 51°57' E 001°24'0 0.1
2016-Dec-03 18:29N 51°57' E 001°25'0 0.1
2016-Dec-03 17:32N 51°57' E 001°25'0 0.0
2016-Dec-03 16:32N 51°57' E 001°25'0 0.0
2016-Dec-03 15:32N 51°57' E 001°25'0 0.0
2016-Dec-03 14:32N 51°57' E 001°25'0 0.1
2016-Dec-03 13:32N 51°57' E 001°24'0 0.1
2016-Dec-03 12:32N 51°57' E 001°24'0 0.0
2016-Dec-03 11:32N 51°57' E 001°24'0 0.0
2016-Dec-03 10:32N 51°57' E 001°24'0 0.0
2016-Dec-03 09:32N 51°57' E 001°24'0 0.0
2016-Dec-03 08:32N 51°57' E 001°25'0 0.0
2016-Dec-03 07:32N 51°57' E 001°24'0 0.1
2016-Dec-03 06:32N 51°57' E 001°25'0 0.0
2016-Dec-03 05:32N 51°57' E 001°25'0 0.0
2016-Dec-03 04:32N 51°57' E 001°25'0 0.0
2016-Dec-03 03:32N 51°57' E 001°25'0 0.0
2016-Dec-03 02:32N 51°57' E 001°25'0 0.1
2016-Dec-03 01:32N 51°57' E 001°24'0 0.0
2016-Dec-03 00:32N 51°57' E 001°24'0 0.0
2016-Dec-02 23:32N 51°57' E 001°24'0 0.0
2016-Dec-02 22:32N 51°57' E 001°25'0 0.0
2016-Dec-02 21:32N 51°57' E 001°24'0 0.0
2016-Dec-02 20:32N 51°57' E 001°24'0 0.0
2016-Dec-02 19:32N 51°57' E 001°25'0 0.1
2016-Dec-02 18:32N 51°57' E 001°25'0 0.1
2016-Dec-02 17:32N 51°57' E 001°25'0 0.0
2016-Dec-02 16:32N 51°57' E 001°25'0 0.0
2016-Dec-02 15:26N 51°57' E 001°25'0 0.0
2016-Dec-02 14:32N 51°57' E 001°25'0 0.0
2016-Dec-02 13:32N 51°57' E 001°25'0 0.1
2016-Dec-02 12:32N 51°57' E 001°25'0 0.0
2016-Dec-02 11:32N 51°57' E 001°24'0 0.0
2016-Dec-02 10:32N 51°57' E 001°25'0 0.0
2016-Dec-02 09:32N 51°57' E 001°25'0 0.0
2016-Dec-02 08:32N 51°57' E 001°25'0 0.0
2016-Dec-02 07:32N 51°57' E 001°25'0 0.1
2016-Dec-02 06:32N 51°57' E 001°25'0 0.1
2016-Dec-02 05:32N 51°57' E 001°25'0 0.0
2016-Dec-02 04:32N 51°57' E 001°25'0 0.0
2016-Dec-02 03:32N 51°57' E 001°25'0 0.0
2016-Dec-02 02:32N 51°57' E 001°25'0 0.0
2016-Dec-02 01:32N 51°57' E 001°25'0 0.1
2016-Dec-02 00:32N 51°57' E 001°25'0 0.1
2016-Dec-01 23:29N 51°57' E 001°25'0 0.0
2016-Dec-01 22:32N 51°57' E 001°25'0 0.0
2016-Dec-01 21:32N 51°57' E 001°25'0 0.0
2016-Dec-01 20:32N 51°57' E 001°25'0 0.0
2016-Dec-01 19:32N 51°57' E 001°25'0 0.1
2016-Dec-01 18:32N 51°57' E 001°25'0 0.1
2016-Dec-01 17:32N 51°57' E 001°25'0 0.0
2016-Dec-01 16:34N 51°57' E 001°25'0 0.0
2016-Dec-01 15:33N 51°57' E 001°25'0 0.0
2016-Dec-01 14:33N 51°57' E 001°25'0 0.0
2016-Dec-01 13:34N 51°57' E 001°25'0 0.0
2016-Dec-01 12:33N 51°57' E 001°25'0 0.1
2016-Dec-01 11:33N 51°57' E 001°25'0 0.0
2016-Dec-01 10:33N 51°57' E 001°25'5 4.8
2016-Dec-01 09:33N 51°56' E 001°32'9 9.5
2016-Dec-01 08:33N 51°51' E 001°45'9 8.6
2016-Dec-01 07:33N 51°42' E 001°48'1110.8
2016-Dec-01 06:33N 51°32' E 001°52'1110.8
2016-Dec-01 05:33N 51°24' E 002°04'1211.7
2016-Dec-01 04:33N 51°15' E 001°51'1212.5
2016-Dec-01 03:34N 51°05' E 001°40'6212.0
2016-Nov-30 22:24N 50°26' E 000°24'1213.7
2016-Nov-30 21:33N 50°22' E 000°07'3013.9
2016-Nov-30 19:23N 50°19' W 000°40'1313.0
2016-Nov-30 18:23N 50°18' W 001°00'1011.9
2016-Nov-30 17:33N 50°18' W 001°16'50 9.4
2016-Nov-30 12:16N 50°19' W 002°34'811.0
2016-Nov-30 11:33N 50°19' W 002°46'1111.3
2016-Nov-30 10:33N 50°16' W 003°03'1111.3
2016-Nov-30 09:33N 50°12' W 003°20'1212.2
2016-Nov-30 08:33N 50°08' W 003°38'1212.3
2016-Nov-30 07:33N 50°05' W 003°57'1312.3
2016-Nov-30 06:27N 50°01' W 004°17'1212.4
2016-Nov-30 05:31N 49°58' W 004°34'1512.2
2016-Nov-30 04:17N 49°54' W 004°57'1411.8
2016-Nov-30 03:04N 49°53' W 005°19'611.3
2016-Nov-30 02:31N 49°53' W 005°29'2110.2
2016-Nov-30 00:27N 49°58' W 006°01'1611.6
2016-Nov-29 23:06N 50°14' W 005°60'2312.5
2016-Nov-29 21:14N 50°37' W 006°00'4711.9
2016-Nov-29 17:16N 51°24' W 005°59'1210.6
2016-Nov-29 16:10N 51°36' W 005°59'140 9.6
2016-Nov-29 01:32N 53°34' W 003°56'1211.8
2016-Nov-29 00:33N 53°33' W 003°36'1111.4
2016-Nov-28 23:33N 53°32' W 003°17'9 9.4
2016-Nov-28 22:33N 53°28' W 003°03'9 8.5
2016-Nov-28 21:28N 53°19' W 002°57'2 2.7
2016-Nov-28 20:33N 53°18' W 002°54'5 5.1
2016-Nov-28 19:33N 53°18' W 002°45'2 0.2
2016-Nov-28 08:22N 53°20' W 002°45'  

Dump ship's entire track history